createdAt,value
2023-03-03T00:00:47.418Z,63.51
2023-03-03T00:03:19.100Z,63.73
2023-03-03T00:05:47.691Z,63.45
2023-03-03T00:08:16.065Z,63.05
2023-03-03T00:10:45.278Z,63.17
2023-03-03T00:13:19.036Z,62.77
2023-03-03T00:15:49.531Z,63.16
2023-03-03T00:18:26.919Z,63.53
2023-03-03T00:20:57.345Z,63.68
2023-03-03T00:23:32.787Z,63.40
2023-03-03T00:26:01.199Z,63.24
2023-03-03T00:28:31.911Z,63.12
2023-03-03T00:31:03.543Z,63.39
2023-03-03T00:33:34.759Z,62.87
2023-03-03T00:36:23.834Z,62.96
2023-03-03T00:38:52.378Z,63.02
2023-03-03T00:41:25.217Z,63.19
2023-03-03T00:43:54.872Z,62.71
2023-03-03T00:46:25.388Z,63.14
2023-03-03T00:48:53.924Z,63.24
2023-03-03T00:51:33.344Z,62.48
2023-03-03T00:54:01.906Z,62.95
2023-03-03T00:56:30.282Z,63.60
2023-03-03T00:58:58.740Z,62.83
2023-03-03T01:01:31.030Z,62.51
2023-03-03T01:03:59.472Z,63.38
2023-03-03T01:06:28.341Z,63.48
2023-03-03T01:08:57.572Z,63.05
2023-03-03T01:11:28.818Z,62.69
2023-03-03T01:13:58.181Z,63.42
2023-03-03T01:16:28.585Z,63.42
2023-03-03T01:18:58.455Z,62.79
2023-03-03T01:21:26.817Z,63.53
2023-03-03T01:23:55.370Z,63.08
2023-03-03T01:26:23.742Z,63.74
2023-03-03T01:28:52.275Z,63.54
2023-03-03T01:31:20.766Z,62.92
2023-03-03T01:33:49.234Z,63.62
2023-03-03T01:36:24.800Z,63.12
2023-03-03T01:38:53.536Z,63.21
2023-03-03T01:41:22.431Z,64.13
2023-03-03T01:43:51.813Z,64.25
2023-03-03T01:46:38.337Z,63.64
2023-03-03T01:49:12.521Z,63.76
2023-03-03T01:51:48.860Z,63.99
2023-03-03T01:54:23.202Z,64.53
2023-03-03T01:56:53.364Z,64.91
2023-03-03T01:59:24.691Z,65.44
2023-03-03T02:01:53.843Z,65.41
2023-03-03T02:04:22.743Z,65.42
2023-03-03T02:06:58.314Z,65.75
2023-03-03T02:09:35.466Z,65.25
2023-03-03T02:12:08.423Z,65.36
2023-03-03T02:14:36.919Z,65.25
2023-03-03T02:17:05.364Z,65.52
2023-03-03T02:19:44.051Z,65.29
2023-03-03T02:22:18.548Z,65.76
2023-03-03T02:24:51.308Z,66.09
2023-03-03T02:27:22.571Z,65.72
2023-03-03T02:29:52.445Z,65.68
2023-03-03T02:32:20.957Z,65.08
2023-03-03T02:34:50.911Z,65.30
2023-03-03T02:37:20.627Z,64.98
2023-03-03T02:39:49.165Z,64.32
2023-03-03T02:42:21.868Z,65.27
2023-03-03T02:44:56.087Z,64.80
2023-03-03T02:47:25.141Z,64.69
2023-03-03T02:49:53.679Z,64.93
2023-03-03T02:52:22.102Z,65.15
2023-03-03T02:54:51.217Z,65.33
2023-03-03T02:57:19.583Z,65.66
2023-03-03T02:59:49.821Z,65.01
2023-03-03T03:02:20.776Z,65.07
2023-03-03T03:04:49.217Z,65.40
2023-03-03T03:07:22.477Z,65.73
2023-03-03T03:09:51.085Z,65.62
2023-03-03T03:12:21.009Z,65.76
2023-03-03T03:14:52.412Z,65.73
2023-03-03T03:17:22.757Z,65.35
2023-03-03T03:19:52.884Z,65.33
2023-03-03T03:22:21.833Z,65.29
2023-03-03T03:24:50.784Z,65.28
2023-03-03T03:27:19.431Z,65.32
2023-03-03T03:29:49.696Z,65.31
2023-03-03T03:32:19.410Z,65.45
2023-03-03T03:34:49.691Z,65.94
2023-03-03T03:37:18.137Z,66.00
2023-03-03T03:39:47.900Z,66.14
2023-03-03T03:42:16.435Z,66.53
2023-03-03T03:44:45.350Z,66.83
2023-03-03T03:47:13.741Z,66.62
2023-03-03T03:49:42.384Z,66.67
2023-03-03T03:52:12.263Z,66.74
2023-03-03T03:54:41.007Z,66.80
2023-03-03T03:57:09.468Z,66.66
2023-03-03T03:59:37.980Z,66.17
2023-03-03T04:02:06.812Z,66.14
2023-03-03T04:04:35.602Z,66.06
2023-03-03T04:07:04.113Z,66.26
2023-03-03T04:09:33.985Z,66.30
2023-03-03T04:12:03.198Z,66.31
2023-03-03T04:14:32.549Z,67.07
2023-03-03T04:17:01.663Z,66.92
2023-03-03T04:19:30.070Z,67.41
2023-03-03T04:21:58.720Z,67.33
2023-03-03T04:24:27.659Z,67.32
2023-03-03T04:26:58.560Z,67.49
2023-03-03T04:29:27.100Z,67.87
2023-03-03T04:31:55.705Z,67.63
2023-03-03T04:34:24.952Z,67.88
2023-03-03T04:36:53.362Z,67.81
2023-03-03T04:39:21.846Z,68.16
2023-03-03T04:41:50.371Z,67.66
2023-03-03T04:44:21.042Z,67.82
2023-03-03T04:46:50.193Z,67.86
2023-03-03T04:49:19.852Z,68.00
2023-03-03T04:51:48.690Z,68.21
2023-03-03T04:54:17.139Z,68.23
2023-03-03T04:56:46.935Z,68.37
2023-03-03T04:59:15.745Z,68.63
2023-03-03T05:01:52.085Z,68.20
2023-03-03T05:04:24.654Z,68.15
2023-03-03T05:06:53.127Z,67.99
2023-03-03T05:09:21.560Z,67.81
2023-03-03T05:11:49.923Z,67.97
2023-03-03T05:14:18.381Z,68.34
2023-03-03T05:16:48.188Z,68.46
2023-03-03T05:19:16.663Z,69.04
2023-03-03T05:21:45.123Z,68.87
2023-03-03T05:24:15.125Z,68.88
2023-03-03T05:26:43.914Z,69.24
2023-03-03T05:29:12.383Z,69.58
2023-03-03T05:31:40.857Z,69.16
2023-03-03T05:34:10.848Z,69.26
2023-03-03T05:36:40.268Z,68.65
2023-03-03T05:39:08.953Z,68.60
2023-03-03T05:41:37.336Z,69.34
2023-03-03T05:44:05.978Z,68.94
2023-03-03T05:46:34.424Z,68.88
2023-03-03T05:49:03.153Z,69.05
2023-03-03T05:51:32.964Z,69.61
2023-03-03T05:54:01.655Z,69.50
2023-03-03T05:56:30.077Z,69.44
2023-03-03T05:58:58.425Z,69.95
2023-03-03T06:01:27.161Z,69.26
2023-03-03T06:03:55.596Z,69.08
2023-03-03T06:06:26.154Z,68.65
2023-03-03T06:08:57.362Z,69.12
2023-03-03T06:11:26.423Z,69.06
2023-03-03T06:13:56.476Z,68.73
2023-03-03T06:16:25.719Z,68.80
2023-03-03T06:18:55.033Z,69.06
2023-03-03T06:21:23.519Z,68.67
2023-03-03T06:23:51.978Z,69.22
2023-03-03T06:26:21.766Z,69.18
2023-03-03T06:28:50.379Z,69.08
2023-03-03T06:31:18.772Z,68.82
2023-03-03T06:33:47.392Z,68.84
2023-03-03T06:36:15.880Z,69.18
2023-03-03T06:38:44.263Z,69.21
2023-03-03T06:41:13.101Z,68.83
2023-03-03T06:43:42.959Z,69.20
2023-03-03T06:46:11.491Z,69.92
2023-03-03T06:48:40.895Z,69.51
2023-03-03T06:51:21.585Z,69.46
2023-03-03T06:53:50.439Z,69.55
2023-03-03T06:56:19.844Z,69.96
2023-03-03T06:58:50.564Z,69.84
2023-03-03T07:01:20.160Z,70.13
2023-03-03T07:03:48.601Z,70.69
2023-03-03T07:06:23.680Z,70.21
2023-03-03T07:08:53.035Z,70.03
2023-03-03T07:11:23.270Z,69.64
2023-03-03T07:13:55.530Z,69.85
2023-03-03T07:16:28.343Z,69.71
2023-03-03T07:19:01.659Z,69.46
2023-03-03T07:21:34.786Z,69.60
2023-03-03T07:24:19.182Z,69.61
2023-03-03T07:26:47.595Z,69.49
2023-03-03T07:29:25.578Z,69.71
2023-03-03T07:31:56.105Z,69.66
2023-03-03T07:34:25.850Z,69.53
2023-03-03T07:36:57.473Z,69.46
2023-03-03T07:39:40.053Z,69.90
2023-03-03T07:42:22.153Z,69.40
2023-03-03T07:45:00.191Z,69.37
2023-03-03T07:47:31.180Z,70.10
2023-03-03T07:50:02.826Z,70.57
2023-03-03T07:52:40.934Z,70.04
2023-03-03T07:55:27.369Z,69.70
2023-03-03T07:57:59.160Z,68.53
2023-03-03T08:01:12.337Z,66.85
2023-03-03T08:03:45.000Z,65.65
2023-03-03T08:06:32.894Z,63.93
2023-03-03T08:09:14.347Z,63.61
2023-03-03T08:11:52.985Z,62.72
2023-03-03T08:14:28.740Z,59.86
2023-03-03T08:16:59.849Z,59.58
2023-03-03T08:19:32.556Z,57.31
2023-03-03T08:22:04.531Z,56.50
2023-03-03T08:24:33.014Z,54.66
2023-03-03T08:27:01.813Z,54.24
2023-03-03T08:29:30.343Z,53.48
2023-03-03T08:31:58.836Z,54.29
2023-03-03T08:34:27.436Z,53.98
2023-03-03T08:36:58.690Z,53.44
2023-03-03T08:39:27.070Z,53.45
2023-03-03T08:41:55.607Z,53.28
2023-03-03T08:44:24.086Z,52.45
2023-03-03T08:46:52.511Z,51.82
2023-03-03T08:49:27.024Z,52.14
2023-03-03T08:51:57.169Z,50.81
2023-03-03T08:54:25.528Z,51.50
2023-03-03T08:56:53.939Z,51.11
2023-03-03T08:59:22.495Z,50.32
2023-03-03T09:01:51.035Z,48.64
2023-03-03T09:04:19.524Z,48.25
2023-03-03T09:06:48.481Z,48.67
2023-03-03T09:09:18.364Z,49.57
2023-03-03T09:11:47.359Z,50.43
2023-03-03T09:14:18.054Z,49.68
2023-03-03T09:16:51.342Z,49.26
2023-03-03T09:19:24.788Z,50.33
2023-03-03T09:21:55.038Z,49.46
2023-03-03T09:24:30.844Z,49.06
2023-03-03T09:27:00.883Z,48.83
2023-03-03T09:29:31.177Z,48.31
2023-03-03T09:32:02.400Z,47.54
2023-03-03T09:34:40.426Z,47.96
2023-03-03T09:37:23.983Z,47.97
2023-03-03T09:39:55.723Z,46.85
2023-03-03T09:42:43.716Z,47.02
2023-03-03T09:45:34.637Z,46.85
2023-03-03T09:48:34.163Z,46.90
2023-03-03T09:51:14.237Z,47.20
2023-03-03T09:54:15.354Z,47.40
2023-03-03T09:56:50.639Z,48.09
2023-03-03T09:59:43.843Z,46.74
2023-03-03T10:02:32.258Z,46.42
2023-03-03T10:05:15.901Z,47.85
2023-03-03T10:07:56.034Z,47.54
2023-03-03T10:10:55.635Z,48.03
2023-03-03T10:13:40.120Z,47.00
2023-03-03T10:16:23.873Z,46.59
2023-03-03T10:19:00.081Z,45.75
2023-03-03T10:21:35.974Z,45.91
2023-03-03T10:24:15.617Z,45.94
2023-03-03T10:27:13.467Z,45.86
2023-03-03T10:29:56.697Z,45.26
2023-03-03T10:32:48.868Z,44.29
2023-03-03T10:35:32.439Z,44.98
2023-03-03T10:38:27.573Z,45.54
2023-03-03T10:41:05.538Z,45.00
2023-03-03T10:43:51.811Z,44.93
2023-03-03T10:46:37.324Z,45.11
2023-03-03T10:49:28.284Z,45.29
2023-03-03T10:52:21.345Z,44.84
2023-03-03T10:55:05.693Z,43.76
2023-03-03T10:57:40.106Z,42.47
2023-03-03T11:00:25.584Z,42.71
2023-03-03T11:03:32.887Z,42.25
2023-03-03T11:06:06.611Z,42.45
2023-03-03T11:08:42.541Z,42.32
2023-03-03T11:11:19.182Z,42.43
2023-03-03T11:13:53.002Z,41.23
2023-03-03T11:16:43.551Z,42.12
2023-03-03T11:19:27.309Z,40.03
2023-03-03T11:22:08.690Z,40.99
2023-03-03T11:24:51.307Z,41.04
2023-03-03T11:27:32.285Z,39.83
2023-03-03T11:30:35.669Z,40.03
2023-03-03T11:33:08.028Z,39.13
2023-03-03T11:35:44.517Z,39.26
2023-03-03T11:38:45.456Z,39.53
2023-03-03T11:41:24.937Z,39.04
2023-03-03T11:43:55.914Z,38.04
2023-03-03T11:46:30.934Z,38.97
2023-03-03T11:49:04.517Z,37.82
2023-03-03T11:51:45.478Z,38.62
2023-03-03T11:54:22.307Z,39.63
2023-03-03T11:56:56.564Z,39.49
2023-03-03T11:59:46.165Z,39.32
2023-03-03T12:02:38.800Z,38.54
2023-03-03T12:05:13.030Z,37.94
2023-03-03T12:07:51.240Z,37.86
2023-03-03T12:10:25.443Z,38.25
2023-03-03T12:13:04.107Z,38.25
2023-03-03T12:15:39.806Z,36.00
2023-03-03T12:18:23.181Z,38.31
2023-03-03T12:21:04.072Z,38.01
2023-03-03T12:23:49.909Z,37.32
2023-03-03T12:26:26.735Z,37.13
2023-03-03T12:29:04.739Z,37.34
2023-03-03T12:31:45.773Z,35.84
2023-03-03T12:34:20.636Z,36.97
2023-03-03T12:37:00.654Z,36.60
2023-03-03T12:39:49.485Z,35.95
2023-03-03T12:42:26.735Z,36.63
2023-03-03T12:45:06.561Z,37.83
2023-03-03T12:47:40.390Z,37.46
2023-03-03T12:50:28.246Z,37.73
2023-03-03T12:53:09.978Z,36.51
2023-03-03T12:55:49.650Z,35.69
2023-03-03T12:58:29.814Z,36.88
2023-03-03T13:01:08.877Z,36.60
2023-03-03T13:03:55.288Z,36.61
2023-03-03T13:06:31.127Z,36.03
2023-03-03T13:09:20.980Z,35.84
2023-03-03T13:12:13.802Z,36.61
2023-03-03T13:14:50.680Z,37.13
2023-03-03T13:17:29.043Z,35.88
2023-03-03T13:20:01.167Z,35.10
2023-03-03T13:22:38.081Z,34.48
2023-03-03T13:25:18.648Z,35.09
2023-03-03T13:27:52.273Z,35.11
2023-03-03T13:30:25.232Z,34.69
2023-03-03T13:33:01.063Z,35.23
2023-03-03T13:35:40.263Z,34.93
2023-03-03T13:38:13.246Z,34.41
2023-03-03T13:40:46.429Z,34.61
2023-03-03T13:43:20.547Z,34.42
2023-03-03T13:45:57.873Z,35.53
2023-03-03T13:48:46.582Z,35.23
2023-03-03T13:51:25.255Z,34.88
2023-03-03T13:54:03.396Z,35.32
2023-03-03T13:56:50.969Z,35.50
2023-03-03T13:59:30.930Z,35.59
2023-03-03T14:02:08.502Z,35.01
2023-03-03T14:04:50.914Z,34.75
2023-03-03T14:07:24.562Z,34.92
2023-03-03T14:10:03.585Z,34.12
2023-03-03T14:12:43.442Z,35.28
2023-03-03T14:15:22.170Z,35.71
2023-03-03T14:18:20.104Z,35.54
2023-03-03T14:20:52.972Z,35.18
2023-03-03T14:23:26.857Z,34.55
2023-03-03T14:25:59.892Z,35.80
2023-03-03T14:28:30.747Z,35.64
2023-03-03T14:31:02.302Z,35.63
2023-03-03T14:33:32.497Z,34.91
2023-03-03T14:36:07.199Z,34.78
2023-03-03T14:38:42.795Z,34.88
2023-03-03T14:41:23.381Z,34.83
2023-03-03T14:43:59.890Z,35.68
2023-03-03T14:46:38.246Z,35.51
2023-03-03T14:49:08.763Z,35.30
2023-03-03T14:51:46.934Z,35.99
2023-03-03T14:54:22.414Z,35.13
2023-03-03T14:57:12.239Z,35.46
2023-03-03T14:59:41.008Z,35.28
2023-03-03T15:02:30.226Z,34.68
2023-03-03T15:05:18.844Z,35.40
2023-03-03T15:07:51.991Z,35.62
2023-03-03T15:10:36.052Z,35.70
2023-03-03T15:13:39.836Z,35.70
2023-03-03T15:16:18.018Z,35.80
2023-03-03T15:19:10.281Z,36.06
2023-03-03T15:21:45.964Z,36.48
2023-03-03T15:24:22.793Z,36.72
2023-03-03T15:26:57.980Z,36.05
2023-03-03T15:29:31.857Z,36.05
2023-03-03T15:32:06.505Z,36.16
2023-03-03T15:34:41.653Z,36.88
2023-03-03T15:37:28.119Z,36.66
2023-03-03T15:40:04.425Z,36.51
2023-03-03T15:42:39.484Z,36.37
2023-03-03T15:45:17.256Z,36.52
2023-03-03T15:48:01.716Z,36.49
2023-03-03T15:50:41.662Z,36.88
2023-03-03T15:53:27.222Z,37.32
2023-03-03T15:56:07.397Z,37.30
2023-03-03T15:59:06.304Z,37.37
2023-03-03T16:01:36.251Z,37.72
2023-03-03T16:04:10.960Z,37.79
2023-03-03T16:06:48.553Z,37.92
2023-03-03T16:09:33.388Z,37.74
2023-03-03T16:12:13.133Z,38.00
2023-03-03T16:15:06.526Z,38.55
2023-03-03T16:17:44.544Z,38.83
2023-03-03T16:20:22.360Z,38.93
2023-03-03T16:23:28.754Z,39.29
2023-03-03T16:26:06.219Z,39.87
2023-03-03T16:28:49.808Z,40.17
2023-03-03T16:31:23.055Z,39.38
2023-03-03T16:34:02.265Z,39.23
2023-03-03T16:36:38.482Z,39.27
2023-03-03T16:39:14.508Z,39.82
2023-03-03T16:41:52.619Z,40.45
2023-03-03T16:44:48.804Z,41.09
2023-03-03T16:47:30.965Z,41.17
2023-03-03T16:50:13.224Z,41.05
2023-03-03T16:52:48.985Z,41.46
2023-03-03T16:55:21.923Z,42.11
2023-03-03T16:58:00.788Z,41.99
2023-03-03T17:00:36.288Z,42.82
2023-03-03T17:03:32.859Z,42.42
2023-03-03T17:06:07.548Z,43.29
2023-03-03T17:08:56.492Z,43.38
2023-03-03T17:11:33.193Z,44.04
2023-03-03T17:14:37.556Z,44.22
2023-03-03T17:17:15.409Z,44.54
2023-03-03T17:19:57.505Z,44.85
2023-03-03T17:22:41.573Z,45.31
2023-03-03T17:25:18.700Z,45.81
2023-03-03T17:28:25.092Z,46.12
2023-03-03T17:31:03.677Z,46.66
2023-03-03T17:34:00.479Z,47.47
2023-03-03T17:36:45.561Z,47.54
2023-03-03T17:39:46.130Z,47.87
2023-03-03T17:42:22.993Z,47.93
2023-03-03T17:45:03.348Z,47.59
2023-03-03T17:47:47.463Z,48.69
2023-03-03T17:50:58.697Z,49.36
2023-03-03T17:53:45.645Z,50.05
2023-03-03T17:56:22.105Z,51.00
2023-03-03T17:59:18.929Z,51.17
2023-03-03T18:02:02.644Z,51.69
2023-03-03T18:04:46.338Z,52.33
2023-03-03T18:07:29.691Z,52.33
2023-03-03T18:10:43.121Z,51.72
2023-03-03T18:13:31.109Z,52.68
2023-03-03T18:16:14.311Z,52.76
2023-03-03T18:19:01.239Z,53.00
2023-03-03T18:21:35.226Z,52.96
2023-03-03T18:24:30.054Z,53.30
2023-03-03T18:27:15.612Z,53.99
2023-03-03T18:30:25.084Z,54.31
2023-03-03T18:33:14.881Z,54.92
2023-03-03T18:35:45.035Z,54.78
2023-03-03T18:38:35.072Z,54.49
2023-03-03T18:41:04.470Z,55.08
2023-03-03T18:44:25.072Z,54.86
2023-03-03T18:46:55.371Z,56.56
2023-03-03T18:49:57.788Z,56.55
2023-03-03T18:52:29.380Z,57.18
2023-03-03T18:55:26.166Z,57.11
2023-03-03T18:58:29.946Z,57.39
2023-03-03T19:01:09.370Z,58.15
2023-03-03T19:03:58.369Z,57.83
2023-03-03T19:06:53.981Z,58.24
2023-03-03T19:09:52.583Z,57.90
2023-03-03T19:12:52.267Z,58.35
2023-03-03T19:15:44.466Z,58.02
2023-03-03T19:18:21.226Z,58.50
2023-03-03T19:20:55.744Z,58.88
2023-03-03T19:23:35.545Z,59.06
2023-03-03T19:26:35.716Z,59.13
2023-03-03T19:29:16.516Z,59.28
2023-03-03T19:31:54.594Z,59.89
2023-03-03T19:34:30.973Z,59.90
2023-03-03T19:37:08.623Z,59.99
2023-03-03T19:39:52.724Z,60.10
2023-03-03T19:42:35.983Z,60.45
2023-03-03T19:45:14.685Z,61.20
2023-03-03T19:47:49.477Z,60.92
2023-03-03T19:50:31.871Z,60.71
2023-03-03T19:53:09.032Z,60.16
2023-03-03T19:55:50.421Z,60.77
2023-03-03T19:58:30.423Z,60.96
2023-03-03T20:01:08.596Z,60.72
2023-03-03T20:04:00.605Z,61.00
2023-03-03T20:06:52.228Z,61.22
2023-03-03T20:09:31.294Z,61.53
2023-03-03T20:12:27.523Z,60.80
2023-03-03T20:15:09.801Z,61.65
2023-03-03T20:17:58.736Z,61.68
2023-03-03T20:20:58.272Z,61.54
2023-03-03T20:23:36.897Z,62.21
2023-03-03T20:26:15.406Z,61.34
2023-03-03T20:29:07.987Z,61.97
2023-03-03T20:31:42.820Z,61.60
2023-03-03T20:34:18.936Z,61.46
2023-03-03T20:36:57.889Z,61.60
2023-03-03T20:39:45.133Z,60.99
2023-03-03T20:42:23.039Z,60.57
2023-03-03T20:45:04.699Z,60.13
2023-03-03T20:47:43.701Z,59.84
2023-03-03T20:50:22.697Z,58.42
2023-03-03T20:53:03.027Z,57.81
2023-03-03T20:55:43.459Z,57.29
2023-03-03T20:58:22.968Z,57.07
2023-03-03T21:00:59.435Z,57.54
2023-03-03T21:03:34.394Z,56.94
2023-03-03T21:06:05.167Z,56.96
2023-03-03T21:08:49.889Z,56.70
2023-03-03T21:11:23.249Z,56.40
2023-03-03T21:13:54.476Z,56.43
2023-03-03T21:16:35.916Z,56.52
2023-03-03T21:19:07.234Z,55.96
2023-03-03T21:21:37.498Z,56.04
2023-03-03T21:24:09.037Z,56.21
2023-03-03T21:26:51.439Z,56.32
2023-03-03T21:29:22.342Z,56.30
2023-03-03T21:31:52.321Z,56.04
2023-03-03T21:34:24.668Z,56.22
2023-03-03T21:36:54.532Z,56.67
2023-03-03T21:39:29.190Z,56.62
2023-03-03T21:42:02.205Z,56.60
2023-03-03T21:44:34.552Z,56.93
2023-03-03T21:47:04.476Z,57.32
2023-03-03T21:49:33.030Z,54.64
2023-03-03T21:52:04.448Z,55.45
2023-03-03T21:54:33.642Z,56.62
2023-03-03T21:57:04.893Z,57.00
2023-03-03T21:59:33.379Z,57.56
2023-03-03T22:02:01.913Z,57.85
2023-03-03T22:04:31.436Z,58.34
2023-03-03T22:07:00.124Z,58.03
2023-03-03T22:09:29.210Z,58.01
2023-03-03T22:11:57.716Z,57.30
2023-03-03T22:14:27.979Z,56.95
2023-03-03T22:16:57.535Z,56.42
2023-03-03T22:19:26.358Z,56.28
2023-03-03T22:21:54.776Z,56.05
2023-03-03T22:24:23.214Z,56.05
2023-03-03T22:26:51.670Z,55.84
2023-03-03T22:29:23.129Z,54.02
2023-03-03T22:31:53.228Z,54.92
2023-03-03T22:34:21.742Z,55.00
2023-03-03T22:36:50.117Z,55.79
2023-03-03T22:39:18.581Z,56.00
2023-03-03T22:41:47.100Z,56.18
2023-03-03T22:44:15.589Z,56.11
2023-03-03T22:46:43.968Z,55.90
2023-03-03T22:49:13.841Z,56.57
2023-03-03T22:51:42.303Z,56.62
2023-03-03T22:54:10.675Z,56.54
2023-03-03T22:56:39.123Z,56.17
2023-03-03T22:59:07.560Z,56.04
2023-03-03T23:01:37.975Z,55.99
2023-03-03T23:04:07.164Z,56.15
2023-03-03T23:06:36.987Z,56.82
2023-03-03T23:09:05.608Z,56.78
2023-03-03T23:11:34.082Z,57.05
2023-03-03T23:14:02.665Z,57.17
2023-03-03T23:16:31.101Z,57.34
2023-03-03T23:18:59.710Z,57.86
2023-03-03T23:21:28.182Z,57.91
2023-03-03T23:23:58.170Z,58.41
2023-03-03T23:26:26.779Z,58.91
2023-03-03T23:28:55.229Z,59.18
2023-03-03T23:31:25.628Z,59.84
2023-03-03T23:33:54.167Z,59.87
2023-03-03T23:36:22.570Z,59.81
2023-03-03T23:38:50.948Z,59.93
2023-03-03T23:41:20.797Z,60.27
2023-03-03T23:43:49.227Z,60.38
2023-03-03T23:46:17.776Z,60.56
2023-03-03T23:48:46.337Z,60.12
2023-03-03T23:51:14.794Z,60.26
2023-03-03T23:53:43.241Z,60.34
2023-03-03T23:56:11.617Z,59.90
2023-03-03T23:58:41.452Z,59.73
